sensor_id;sensor_type;location;lat;lon;timestamp;pressure;altitude;pressure_sealevel;temperature;humidity
10510;BME280;5303;53.266;10.410;2022-07-24T00:01:32;101817.88;;;14.60;100.00
10510;BME280;5303;53.266;10.410;2022-07-24T00:03:58;101830.94;;;14.58;100.00
10510;BME280;5303;53.266;10.410;2022-07-24T00:06:23;101825.63;;;14.56;100.00
10510;BME280;5303;53.266;10.410;2022-07-24T00:08:49;101831.63;;;14.52;100.00
10510;BME280;5303;53.266;10.410;2022-07-24T00:11:14;101825.44;;;14.50;100.00
10510;BME280;5303;53.266;10.410;2022-07-24T00:13:39;101822.19;;;14.46;100.00
10510;BME280;5303;53.266;10.410;2022-07-24T00:16:05;101827.16;;;14.42;100.00
10510;BME280;5303;53.266;10.410;2022-07-24T00:18:30;101818.25;;;14.40;100.00
10510;BME280;5303;53.266;10.410;2022-07-24T00:20:56;101812.25;;;14.37;100.00
10510;BME280;5303;53.266;10.410;2022-07-24T00:23:21;101816.19;;;14.34;100.00
10510;BME280;5303;53.266;10.410;2022-07-24T00:25:48;101824.59;;;14.33;100.00
10510;BME280;5303;53.266;10.410;2022-07-24T00:28:13;101816.53;;;14.31;100.00
10510;BME280;5303;53.266;10.410;2022-07-24T00:30:39;101813.28;;;14.28;100.00
10510;BME280;5303;53.266;10.410;2022-07-24T00:33:04;101810.06;;;14.24;100.00
10510;BME280;5303;53.266;10.410;2022-07-24T00:35:30;101811.09;;;14.23;100.00
10510;BME280;5303;53.266;10.410;2022-07-24T00:37:55;101804.56;;;14.24;100.00
10510;BME280;5303;53.266;10.410;2022-07-24T00:40:20;101809.34;;;14.22;100.00
10510;BME280;5303;53.266;10.410;2022-07-24T00:42:46;101803.38;;;14.18;100.00
10510;BME280;5303;53.266;10.410;2022-07-24T00:45:11;101801.84;;;14.16;100.00
10510;BME280;5303;53.266;10.410;2022-07-24T00:47:36;101799.81;;;14.10;100.00
10510;BME280;5303;53.266;10.410;2022-07-24T00:50:02;101804.59;;;14.08;100.00
10510;BME280;5303;53.266;10.410;2022-07-24T00:52:30;101802.88;;;14.07;100.00
10510;BME280;5303;53.266;10.410;2022-07-24T00:54:55;101798.59;;;14.04;100.00
10510;BME280;5303;53.266;10.410;2022-07-24T00:57:21;101801.69;;;14.01;100.00
10510;BME280;5303;53.266;10.410;2022-07-24T00:59:46;101803.91;;;13.97;100.00
10510;BME280;5303;53.266;10.410;2022-07-24T01:02:11;101807.00;;;13.94;100.00
10510;BME280;5303;53.266;10.410;2022-07-24T01:04:38;101808.53;;;13.89;100.00
10510;BME280;5303;53.266;10.410;2022-07-24T01:07:05;101808.72;;;13.87;100.00
10510;BME280;5303;53.266;10.410;2022-07-24T01:09:31;101811.09;;;13.82;100.00
10510;BME280;5303;53.266;10.410;2022-07-24T01:11:57;101817.75;;;13.80;100.00
10510;BME280;5303;53.266;10.410;2022-07-24T01:14:23;101813.31;;;13.79;100.00
10510;BME280;5303;53.266;10.410;2022-07-24T01:16:49;101816.22;;;13.77;100.00
10510;BME280;5303;53.266;10.410;2022-07-24T01:19:14;101817.25;;;13.76;100.00
10510;BME280;5303;53.266;10.410;2022-07-24T01:21:45;101821.69;;;13.77;100.00
10510;BME280;5303;53.266;10.410;2022-07-24T01:24:11;101806.47;;;13.74;100.00
10510;BME280;5303;53.266;10.410;2022-07-24T01:26:36;101806.13;;;13.69;100.00
10510;BME280;5303;53.266;10.410;2022-07-24T01:29:02;101790.88;;;13.67;100.00
10510;BME280;5303;53.266;10.410;2022-07-24T01:31:27;101789.00;;;13.67;100.00
10510;BME280;5303;53.266;10.410;2022-07-24T01:33:52;101805.09;;;13.70;100.00
10510;BME280;5303;53.266;10.410;2022-07-24T01:36:18;101805.63;;;13.74;100.00
10510;BME280;5303;53.266;10.410;2022-07-24T01:38:43;101802.19;;;13.72;100.00
10510;BME280;5303;53.266;10.410;2022-07-24T01:41:09;101799.59;;;13.70;100.00
10510;BME280;5303;53.266;10.410;2022-07-24T01:43:34;101791.41;;;13.62;100.00
10510;BME280;5303;53.266;10.410;2022-07-24T01:45:59;101796.19;;;13.60;100.00
10510;BME280;5303;53.266;10.410;2022-07-24T01:48:24;101792.06;;;13.56;100.00
10510;BME280;5303;53.266;10.410;2022-07-24T01:50:50;101799.59;;;13.54;100.00
10510;BME280;5303;53.266;10.410;2022-07-24T01:53:15;101796.19;;;13.52;100.00
10510;BME280;5303;53.266;10.410;2022-07-24T01:55:40;101800.81;;;13.51;100.00
10510;BME280;5303;53.266;10.410;2022-07-24T01:58:06;101801.81;;;13.50;100.00
10510;BME280;5303;53.266;10.410;2022-07-24T02:00:31;101811.75;;;13.51;100.00
10510;BME280;5303;53.266;10.410;2022-07-24T02:02:56;101812.75;;;13.50;100.00
10510;BME280;5303;53.266;10.410;2022-07-24T02:05:22;101803.88;;;13.48;100.00
10510;BME280;5303;53.266;10.410;2022-07-24T02:07:55;101805.59;;;13.49;100.00
10510;BME280;5303;53.266;10.410;2022-07-24T02:10:20;101809.19;;;13.42;100.00
10510;BME280;5303;53.266;10.410;2022-07-24T02:12:46;101802.81;;;13.41;100.00
10510;BME280;5303;53.266;10.410;2022-07-24T02:15:11;101802.81;;;13.41;100.00
10510;BME280;5303;53.266;10.410;2022-07-24T02:17:36;101806.44;;;13.42;100.00
10510;BME280;5303;53.266;10.410;2022-07-24T02:20:02;101812.03;;;13.32;100.00
10510;BME280;5303;53.266;10.410;2022-07-24T02:22:28;101804.50;;;13.26;100.00
10510;BME280;5303;53.266;10.410;2022-07-24T02:24:53;101801.56;;;13.19;100.00
10510;BME280;5303;53.266;10.410;2022-07-24T02:27:18;101800.69;;;13.19;100.00
10510;BME280;5303;53.266;10.410;2022-07-24T02:29:43;101803.06;;;13.22;100.00
10510;BME280;5303;53.266;10.410;2022-07-24T02:32:09;101807.56;;;13.23;100.00
10510;BME280;5303;53.266;10.410;2022-07-24T02:34:34;101797.47;;;13.23;100.00
10510;BME280;5303;53.266;10.410;2022-07-24T02:37:00;101811.00;;;13.25;100.00
10510;BME280;5303;53.266;10.410;2022-07-24T02:39:25;101809.91;;;13.18;100.00
10510;BME280;5303;53.266;10.410;2022-07-24T02:41:50;101800.84;;;13.17;100.00
10510;BME280;5303;53.266;10.410;2022-07-24T02:44:16;101813.50;;;13.18;100.00
10510;BME280;5303;53.266;10.410;2022-07-24T02:46:41;101808.53;;;13.14;100.00
10510;BME280;5303;53.266;10.410;2022-07-24T02:49:07;101815.19;;;13.11;100.00
10510;BME280;5303;53.266;10.410;2022-07-24T02:51:32;101808.34;;;13.07;100.00
10510;BME280;5303;53.266;10.410;2022-07-24T02:53:57;101803.03;;;13.05;100.00
10510;BME280;5303;53.266;10.410;2022-07-24T02:56:22;101813.97;;;13.05;100.00
10510;BME280;5303;53.266;10.410;2022-07-24T02:58:49;101821.19;;;13.07;100.00
10510;BME280;5303;53.266;10.410;2022-07-24T03:01:14;101820.16;;;13.08;100.00
10510;BME280;5303;53.266;10.410;2022-07-24T03:03:40;101821.53;;;13.12;100.00
10510;BME280;5303;53.266;10.410;2022-07-24T03:06:05;101825.97;;;13.13;100.00
10510;BME280;5303;53.266;10.410;2022-07-24T03:08:30;101832.31;;;13.13;100.00
10510;BME280;5303;53.266;10.410;2022-07-24T03:10:56;101828.03;;;13.11;100.00
10510;BME280;5303;53.266;10.410;2022-07-24T03:13:21;101825.63;;;13.08;100.00
10510;BME280;5303;53.266;10.410;2022-07-24T03:15:46;101825.75;;;13.06;100.00
10510;BME280;5303;53.266;10.410;2022-07-24T03:18:11;101821.31;;;13.05;100.00
10510;BME280;5303;53.266;10.410;2022-07-24T03:20:37;101825.91;;;12.96;100.00
10510;BME280;5303;53.266;10.410;2022-07-24T03:23:02;101822.63;;;12.93;100.00
10510;BME280;5303;53.266;10.410;2022-07-24T03:25:27;101819.56;;;12.88;100.00
10510;BME280;5303;53.266;10.410;2022-07-24T03:27:53;101814.44;;;12.93;100.00
10510;BME280;5303;53.266;10.410;2022-07-24T03:30:19;101822.81;;;12.91;100.00
10510;BME280;5303;53.266;10.410;2022-07-24T03:32:45;101826.22;;;12.93;100.00
10510;BME280;5303;53.266;10.410;2022-07-24T03:35:10;101823.16;;;12.96;100.00
10510;BME280;5303;53.266;10.410;2022-07-24T03:37:36;101820.81;;;13.01;100.00
10510;BME280;5303;53.266;10.410;2022-07-24T03:40:02;101823.69;;;13.00;100.00
10510;BME280;5303;53.266;10.410;2022-07-24T03:42:27;101831.53;;;12.95;100.00
10510;BME280;5303;53.266;10.410;2022-07-24T03:44:53;101827.06;;;12.86;100.00
10510;BME280;5303;53.266;10.410;2022-07-24T03:47:18;101828.28;;;12.91;100.00
10510;BME280;5303;53.266;10.410;2022-07-24T03:49:43;101825.56;;;12.91;100.00
10510;BME280;5303;53.266;10.410;2022-07-24T03:52:09;101826.22;;;12.93;100.00
10510;BME280;5303;53.266;10.410;2022-07-24T03:54:34;101831.16;;;12.90;100.00
10510;BME280;5303;53.266;10.410;2022-07-24T03:57:00;101828.97;;;12.93;100.00
10510;BME280;5303;53.266;10.410;2022-07-24T03:59:25;101833.78;;;12.99;100.00
10510;BME280;5303;53.266;10.410;2022-07-24T04:01:50;101832.59;;;13.02;100.00
10510;BME280;5303;53.266;10.410;2022-07-24T04:04:15;101823.72;;;13.08;100.00
10510;BME280;5303;53.266;10.410;2022-07-24T04:06:41;101823.78;;;13.16;100.00
10510;BME280;5303;53.266;10.410;2022-07-24T04:09:06;101828.56;;;13.22;100.00
10510;BME280;5303;53.266;10.410;2022-07-24T04:11:32;101821.59;;;13.28;100.00
10510;BME280;5303;53.266;10.410;2022-07-24T04:13:57;101808.28;;;13.33;100.00
10510;BME280;5303;53.266;10.410;2022-07-24T04:16:23;101820.78;;;13.36;100.00
10510;BME280;5303;53.266;10.410;2022-07-24T04:18:49;101818.06;;;13.44;100.00
10510;BME280;5303;53.266;10.410;2022-07-24T04:21:14;101816.19;;;13.52;100.00
10510;BME280;5303;53.266;10.410;2022-07-24T04:23:40;101811.09;;;13.66;100.00
10510;BME280;5303;53.266;10.410;2022-07-24T04:26:06;101809.53;;;13.96;100.00
10510;BME280;5303;53.266;10.410;2022-07-24T04:28:31;101802.16;;;14.45;100.00
10510;BME280;5303;53.266;10.410;2022-07-24T04:30:57;101803.31;;;15.07;100.00
10510;BME280;5303;53.266;10.410;2022-07-24T04:33:22;101796.28;;;16.27;100.00
10510;BME280;5303;53.266;10.410;2022-07-24T04:35:48;101782.81;;;17.58;100.00
10510;BME280;5303;53.266;10.410;2022-07-24T04:38:13;101781.38;;;18.05;100.00
10510;BME280;5303;53.266;10.410;2022-07-24T04:40:39;101780.22;;;17.92;100.00
10510;BME280;5303;53.266;10.410;2022-07-24T04:43:05;101782.28;;;17.48;100.00
10510;BME280;5303;53.266;10.410;2022-07-24T04:45:31;101798.59;;;16.68;100.00
10510;BME280;5303;53.266;10.410;2022-07-24T04:47:57;101797.38;;;16.03;100.00
10510;BME280;5303;53.266;10.410;2022-07-24T04:50:22;101797.66;;;15.63;100.00
10510;BME280;5303;53.266;10.410;2022-07-24T04:52:47;101796.66;;;15.64;100.00
10510;BME280;5303;53.266;10.410;2022-07-24T04:55:13;101798.63;;;15.47;100.00
10510;BME280;5303;53.266;10.410;2022-07-24T04:57:39;101791.59;;;15.75;100.00
10510;BME280;5303;53.266;10.410;2022-07-24T05:00:06;101787.63;;;16.83;100.00
10510;BME280;5303;53.266;10.410;2022-07-24T05:02:33;101779.19;;;17.57;100.00
10510;BME280;5303;53.266;10.410;2022-07-24T05:04:58;101780.84;;;18.79;100.00
10510;BME280;5303;53.266;10.410;2022-07-24T05:07:24;101786.03;;;20.76;100.00
10510;BME280;5303;53.266;10.410;2022-07-24T05:09:49;101784.78;;;22.00;88.93
10510;BME280;5303;53.266;10.410;2022-07-24T05:12:14;101780.47;;;21.73;83.76
10510;BME280;5303;53.266;10.410;2022-07-24T05:14:40;101781.75;;;21.77;86.37
10510;BME280;5303;53.266;10.410;2022-07-24T05:17:05;101782.34;;;22.36;85.00
10510;BME280;5303;53.266;10.410;2022-07-24T05:19:30;101772.78;;;23.42;77.44
10510;BME280;5303;53.266;10.410;2022-07-24T05:21:55;101766.38;;;24.72;67.68
10510;BME280;5303;53.266;10.410;2022-07-24T05:24:21;101771.56;;;24.33;66.74
10510;BME280;5303;53.266;10.410;2022-07-24T05:26:46;101769.13;;;25.36;60.94
10510;BME280;5303;53.266;10.410;2022-07-24T05:29:11;101764.94;;;25.67;57.46
10510;BME280;5303;53.266;10.410;2022-07-24T05:31:37;101768.66;;;26.01;57.94
10510;BME280;5303;53.266;10.410;2022-07-24T05:34:02;101777.53;;;25.24;58.60
10510;BME280;5303;53.266;10.410;2022-07-24T05:36:28;101780.63;;;24.29;61.19
10510;BME280;5303;53.266;10.410;2022-07-24T05:38:54;101783.91;;;22.50;70.41
10510;BME280;5303;53.266;10.410;2022-07-24T05:41:19;101793.91;;;21.37;79.15
10510;BME280;5303;53.266;10.410;2022-07-24T05:43:45;101789.50;;;20.25;90.64
10510;BME280;5303;53.266;10.410;2022-07-24T05:46:10;101783.47;;;19.55;100.00
10510;BME280;5303;53.266;10.410;2022-07-24T05:48:35;101787.94;;;18.95;100.00
10510;BME280;5303;53.266;10.410;2022-07-24T05:51:01;101788.72;;;18.54;100.00
10510;BME280;5303;53.266;10.410;2022-07-24T05:53:27;101781.88;;;18.15;100.00
10510;BME280;5303;53.266;10.410;2022-07-24T05:55:52;101786.03;;;18.04;100.00
10510;BME280;5303;53.266;10.410;2022-07-24T05:58:18;101775.75;;;17.91;100.00
10510;BME280;5303;53.266;10.410;2022-07-24T06:00:44;101779.47;;;17.84;100.00
10510;BME280;5303;53.266;10.410;2022-07-24T06:03:09;101779.59;;;17.76;100.00
10510;BME280;5303;53.266;10.410;2022-07-24T06:05:35;101771.00;;;17.64;100.00
10510;BME280;5303;53.266;10.410;2022-07-24T06:08:00;101773.16;;;17.68;100.00
10510;BME280;5303;53.266;10.410;2022-07-24T06:10:26;101765.63;;;17.77;100.00
10510;BME280;5303;53.266;10.410;2022-07-24T06:12:52;101769.06;;;17.79;100.00
10510;BME280;5303;53.266;10.410;2022-07-24T06:15:17;101763.91;;;17.76;100.00
10510;BME280;5303;53.266;10.410;2022-07-24T06:17:42;101765.53;;;17.85;100.00
10510;BME280;5303;53.266;10.410;2022-07-24T06:20:09;101767.22;;;17.86;100.00
10510;BME280;5303;53.266;10.410;2022-07-24T06:22:38;101765.34;;;17.93;100.00
10510;BME280;5303;53.266;10.410;2022-07-24T06:25:03;101766.75;;;18.04;100.00
10510;BME280;5303;53.266;10.410;2022-07-24T06:27:29;101761.63;;;18.01;100.00
10510;BME280;5303;53.266;10.410;2022-07-24T06:29:54;101760.63;;;18.09;100.00
10510;BME280;5303;53.266;10.410;2022-07-24T06:32:19;101758.75;;;18.16;100.00
10510;BME280;5303;53.266;10.410;2022-07-24T06:34:45;101755.25;;;18.29;100.00
10510;BME280;5303;53.266;10.410;2022-07-24T06:37:10;101750.22;;;18.39;100.00
10510;BME280;5303;53.266;10.410;2022-07-24T06:39:35;101750.50;;;18.51;100.00
10510;BME280;5303;53.266;10.410;2022-07-24T06:42:01;101748.84;;;18.56;100.00
10510;BME280;5303;53.266;10.410;2022-07-24T06:44:26;101746.31;;;18.61;100.00
10510;BME280;5303;53.266;10.410;2022-07-24T06:46:51;101747.63;;;18.66;100.00
10510;BME280;5303;53.266;10.410;2022-07-24T06:49:17;101751.53;;;18.78;100.00
10510;BME280;5303;53.266;10.410;2022-07-24T06:51:42;101749.00;;;18.83;100.00
10510;BME280;5303;53.266;10.410;2022-07-24T06:54:08;101748.44;;;18.94;100.00
10510;BME280;5303;53.266;10.410;2022-07-24T06:56:34;101741.66;;;19.03;100.00
10510;BME280;5303;53.266;10.410;2022-07-24T06:58:59;101739.97;;;19.09;100.00
10510;BME280;5303;53.266;10.410;2022-07-24T07:01:25;101738.09;;;19.16;100.00
10510;BME280;5303;53.266;10.410;2022-07-24T07:03:52;101736.41;;;19.22;100.00
10510;BME280;5303;53.266;10.410;2022-07-24T07:06:17;101737.94;;;19.31;100.00
10510;BME280;5303;53.266;10.410;2022-07-24T07:08:44;101742.81;;;19.36;100.00
10510;BME280;5303;53.266;10.410;2022-07-24T07:11:09;101731.81;;;19.42;100.00
10510;BME280;5303;53.266;10.410;2022-07-24T07:13:36;101730.94;;;19.48;100.00
10510;BME280;5303;53.266;10.410;2022-07-24T07:16:02;101729.66;;;19.44;100.00
10510;BME280;5303;53.266;10.410;2022-07-24T07:18:27;101730.53;;;19.51;100.00
10510;BME280;5303;53.266;10.410;2022-07-24T07:20:53;101733.09;;;19.60;100.00
10510;BME280;5303;53.266;10.410;2022-07-24T07:23:22;101735.69;;;19.68;100.00
10510;BME280;5303;53.266;10.410;2022-07-24T07:25:49;101727.41;;;19.68;100.00
10510;BME280;5303;53.266;10.410;2022-07-24T07:28:15;101726.13;;;19.77;100.00
10510;BME280;5303;53.266;10.410;2022-07-24T07:30:41;101723.56;;;19.95;100.00
10510;BME280;5303;53.266;10.410;2022-07-24T07:33:06;101719.53;;;20.05;100.00
10510;BME280;5303;53.266;10.410;2022-07-24T07:35:31;101719.53;;;20.05;100.00
10510;BME280;5303;53.266;10.410;2022-07-24T07:37:57;101723.97;;;20.12;100.00
10510;BME280;5303;53.266;10.410;2022-07-24T07:40:24;101719.72;;;20.23;100.00
10510;BME280;5303;53.266;10.410;2022-07-24T07:42:50;101720.31;;;20.38;100.00
10510;BME280;5303;53.266;10.410;2022-07-24T07:45:15;101714.13;;;20.43;100.00
10510;BME280;5303;53.266;10.410;2022-07-24T07:47:40;101720.72;;;20.48;100.00
10510;BME280;5303;53.266;10.410;2022-07-24T07:50:06;101719.66;;;20.56;100.00
10510;BME280;5303;53.266;10.410;2022-07-24T07:52:31;101717.94;;;20.62;100.00
10510;BME280;5303;53.266;10.410;2022-07-24T07:54:57;101716.22;;;20.74;100.00
10510;BME280;5303;53.266;10.410;2022-07-24T07:57:22;101714.91;;;20.77;100.00
10510;BME280;5303;53.266;10.410;2022-07-24T07:59:48;101717.22;;;20.80;100.00
10510;BME280;5303;53.266;10.410;2022-07-24T08:02:13;101715.34;;;20.80;100.00
10510;BME280;5303;53.266;10.410;2022-07-24T08:04:40;101714.22;;;20.88;100.00
10510;BME280;5303;53.266;10.410;2022-07-24T08:07:06;101714.41;;;21.00;100.00
10510;BME280;5303;53.266;10.410;2022-07-24T08:09:31;101708.41;;;21.03;100.00
10510;BME280;5303;53.266;10.410;2022-07-24T08:11:56;101707.75;;;21.07;100.00
10510;BME280;5303;53.266;10.410;2022-07-24T08:14:22;101706.00;;;21.13;100.00
10510;BME280;5303;53.266;10.410;2022-07-24T08:16:47;101705.28;;;21.24;100.00
10510;BME280;5303;53.266;10.410;2022-07-24T08:19:12;101705.19;;;21.44;100.00
10510;BME280;5303;53.266;10.410;2022-07-24T08:21:38;101700.66;;;21.50;100.00
10510;BME280;5303;53.266;10.410;2022-07-24T08:24:03;101706.22;;;21.50;100.00
10510;BME280;5303;53.266;10.410;2022-07-24T08:26:30;101706.47;;;21.48;100.00
10510;BME280;5303;53.266;10.410;2022-07-24T08:28:57;101702.56;;;21.56;100.00
10510;BME280;5303;53.266;10.410;2022-07-24T08:31:24;101708.94;;;21.56;100.00
10510;BME280;5303;53.266;10.410;2022-07-24T08:33:49;101711.66;;;21.63;100.00
10510;BME280;5303;53.266;10.410;2022-07-24T08:36:15;101709.84;;;21.75;100.00
10510;BME280;5303;53.266;10.410;2022-07-24T08:38:40;101697.13;;;21.68;100.00
10510;BME280;5303;53.266;10.410;2022-07-24T08:41:05;101706.28;;;21.68;100.00
10510;BME280;5303;53.266;10.410;2022-07-24T08:43:31;101707.53;;;21.72;100.00
10510;BME280;5303;53.266;10.410;2022-07-24T08:45:58;101705.50;;;21.86;100.00
10510;BME280;5303;53.266;10.410;2022-07-24T08:48:26;101698.06;;;22.05;100.00
10510;BME280;5303;53.266;10.410;2022-07-24T08:50:52;101695.75;;;22.02;98.20
10510;BME280;5303;53.266;10.410;2022-07-24T08:53:21;101687.59;;;22.07;98.50
10510;BME280;5303;53.266;10.410;2022-07-24T08:55:46;101691.84;;;22.09;98.34
10510;BME280;5303;53.266;10.410;2022-07-24T08:58:12;101693.28;;;22.19;100.00
10510;BME280;5303;53.266;10.410;2022-07-24T09:00:37;101689.03;;;22.16;100.00
10510;BME280;5303;53.266;10.410;2022-07-24T09:03:03;101689.97;;;22.28;99.85
10510;BME280;5303;53.266;10.410;2022-07-24T09:05:29;101695.59;;;22.40;98.41
10510;BME280;5303;53.266;10.410;2022-07-24T09:08:12;101688.59;;;22.56;95.14
10510;BME280;5303;53.266;10.410;2022-07-24T09:10:39;101690.44;;;22.62;92.53
10510;BME280;5303;53.266;10.410;2022-07-24T09:13:15;101684.88;;;22.62;91.37
10510;BME280;5303;53.266;10.410;2022-07-24T09:15:47;101682.81;;;22.58;92.28
10510;BME280;5303;53.266;10.410;2022-07-24T09:18:33;101677.25;;;22.58;93.46
10510;BME280;5303;53.266;10.410;2022-07-24T09:21:11;101679.72;;;22.66;93.63
10510;BME280;5303;53.266;10.410;2022-07-24T09:23:38;101666.44;;;22.68;91.00
10510;BME280;5303;53.266;10.410;2022-07-24T09:26:03;101669.97;;;22.75;92.30
10510;BME280;5303;53.266;10.410;2022-07-24T09:28:29;101662.41;;;22.82;92.11
10510;BME280;5303;53.266;10.410;2022-07-24T09:31:00;101666.50;;;22.79;89.58
10510;BME280;5303;53.266;10.410;2022-07-24T09:33:35;101664.19;;;22.95;90.77
10510;BME280;5303;53.266;10.410;2022-07-24T09:36:11;101662.56;;;23.06;90.77
10510;BME280;5303;53.266;10.410;2022-07-24T09:38:37;101653.75;;;23.20;87.43
10510;BME280;5303;53.266;10.410;2022-07-24T09:41:03;101653.06;;;23.25;86.90
10510;BME280;5303;53.266;10.410;2022-07-24T09:43:32;101658.53;;;23.32;88.47
10510;BME280;5303;53.266;10.410;2022-07-24T09:46:08;101656.63;;;23.44;88.43
10510;BME280;5303;53.266;10.410;2022-07-24T09:48:50;101661.81;;;23.52;86.86
10510;BME280;5303;53.266;10.410;2022-07-24T09:51:18;101658.81;;;23.65;84.50
10510;BME280;5303;53.266;10.410;2022-07-24T09:53:45;101663.69;;;23.82;82.55
10510;BME280;5303;53.266;10.410;2022-07-24T09:56:12;101656.56;;;24.09;79.53
10510;BME280;5303;53.266;10.410;2022-07-24T09:58:40;101663.59;;;24.12;78.20
10510;BME280;5303;53.266;10.410;2022-07-24T10:01:07;101651.84;;;24.10;79.69
10510;BME280;5303;53.266;10.410;2022-07-24T10:03:36;101649.31;;;24.08;78.48
10510;BME280;5303;53.266;10.410;2022-07-24T10:06:06;101643.63;;;24.03;78.26
10510;BME280;5303;53.266;10.410;2022-07-24T10:08:32;101635.97;;;24.10;78.11
10510;BME280;5303;53.266;10.410;2022-07-24T10:10:59;101650.16;;;24.21;77.16
10510;BME280;5303;53.266;10.410;2022-07-24T10:13:25;101644.47;;;24.27;77.87
10510;BME280;5303;53.266;10.410;2022-07-24T10:16:16;101637.38;;;24.36;75.15
10510;BME280;5303;53.266;10.410;2022-07-24T10:21:29;101629.81;;;24.44;74.66
10510;BME280;5303;53.266;10.410;2022-07-24T10:26:39;101635.78;;;24.64;73.22
10510;BME280;5303;53.266;10.410;2022-07-24T10:29:24;101616.63;;;24.68;73.81
10510;BME280;5303;53.266;10.410;2022-07-24T10:31:52;101609.56;;;24.77;72.03
10510;BME280;5303;53.266;10.410;2022-07-24T10:34:49;101615.94;;;24.89;68.83
10510;BME280;5303;53.266;10.410;2022-07-24T10:40:27;101612.06;;;25.07;68.00
10510;BME280;5303;53.266;10.410;2022-07-24T10:45:38;101606.13;;;25.15;68.63
10510;BME280;5303;53.266;10.410;2022-07-24T10:53:22;101593.44;;;25.07;67.86
10510;BME280;5303;53.266;10.410;2022-07-24T10:55:47;101595.75;;;25.27;68.35
10510;BME280;5303;53.266;10.410;2022-07-24T10:58:13;101589.84;;;25.41;66.50
10510;BME280;5303;53.266;10.410;2022-07-24T11:00:43;101593.63;;;25.51;67.45
10510;BME280;5303;53.266;10.410;2022-07-24T11:03:24;101603.78;;;25.58;64.94
10510;BME280;5303;53.266;10.410;2022-07-24T11:06:05;101593.09;;;25.71;62.15
10510;BME280;5303;53.266;10.410;2022-07-24T11:08:48;101577.28;;;25.77;61.22
10510;BME280;5303;53.266;10.410;2022-07-24T11:11:15;101578.72;;;25.79;61.13
10510;BME280;5303;53.266;10.410;2022-07-24T11:13:43;101577.81;;;25.74;64.12
10510;BME280;5303;53.266;10.410;2022-07-24T11:21:12;101573.31;;;25.90;64.48
10510;BME280;5303;53.266;10.410;2022-07-24T11:31:50;101576.59;;;26.25;61.52
10510;BME280;5303;53.266;10.410;2022-07-24T11:34:16;101567.78;;;26.34;60.28
10510;BME280;5303;53.266;10.410;2022-07-24T11:36:45;101563.34;;;26.38;61.10
10510;BME280;5303;53.266;10.410;2022-07-24T11:39:13;101554.44;;;26.41;60.52
10510;BME280;5303;53.266;10.410;2022-07-24T11:41:51;101549.28;;;26.50;60.70
10510;BME280;5303;53.266;10.410;2022-07-24T11:44:40;101549.28;;;26.50;60.56
10510;BME280;5303;53.266;10.410;2022-07-24T11:47:23;101547.63;;;26.54;61.33
10510;BME280;5303;53.266;10.410;2022-07-24T11:49:50;101541.38;;;26.68;59.76
10510;BME280;5303;53.266;10.410;2022-07-24T11:52:25;101541.09;;;26.70;60.24
10510;BME280;5303;53.266;10.410;2022-07-24T11:54:56;101529.91;;;26.70;59.43
10510;BME280;5303;53.266;10.410;2022-07-24T11:57:28;101522.66;;;26.69;58.75
10510;BME280;5303;53.266;10.410;2022-07-24T11:59:54;101513.00;;;26.82;57.31
10510;BME280;5303;53.266;10.410;2022-07-24T12:02:20;101519.13;;;26.79;57.80
10510;BME280;5303;53.266;10.410;2022-07-24T12:04:46;101516.31;;;26.79;59.69
10510;BME280;5303;53.266;10.410;2022-07-24T12:07:15;101518.38;;;26.88;59.16
10510;BME280;5303;53.266;10.410;2022-07-24T12:09:55;101508.94;;;27.00;58.42
10510;BME280;5303;53.266;10.410;2022-07-24T12:15:00;101501.69;;;27.31;57.53
10510;BME280;5303;53.266;10.410;2022-07-24T12:17:27;101494.69;;;27.33;58.17
10510;BME280;5303;53.266;10.410;2022-07-24T12:19:55;101494.88;;;27.22;57.43
10510;BME280;5303;53.266;10.410;2022-07-24T12:22:21;101480.13;;;27.31;57.96
10510;BME280;5303;53.266;10.410;2022-07-24T12:24:48;101469.88;;;27.42;57.71
10510;BME280;5303;53.266;10.410;2022-07-24T12:27:32;101482.69;;;27.38;56.78
10510;BME280;5303;53.266;10.410;2022-07-24T12:29:57;101480.56;;;27.55;56.65
10510;BME280;5303;53.266;10.410;2022-07-24T12:32:22;101470.31;;;27.71;55.80
10510;BME280;5303;53.266;10.410;2022-07-24T12:34:48;101469.19;;;27.72;55.77
10510;BME280;5303;53.266;10.410;2022-07-24T12:37:19;101460.31;;;27.80;55.34
10510;BME280;5303;53.266;10.410;2022-07-24T12:39:52;101458.91;;;27.83;56.72
10510;BME280;5303;53.266;10.410;2022-07-24T12:42:28;101453.03;;;27.84;54.84
10510;BME280;5303;53.266;10.410;2022-07-24T12:44:54;101440.75;;;27.96;54.85
10510;BME280;5303;53.266;10.410;2022-07-24T12:47:19;101451.47;;;28.09;54.85
10510;BME280;5303;53.266;10.410;2022-07-24T12:49:45;101441.34;;;28.08;54.71
10510;BME280;5303;53.266;10.410;2022-07-24T12:52:25;101439.97;;;28.10;54.39
10510;BME280;5303;53.266;10.410;2022-07-24T12:54:53;101445.56;;;28.10;54.52
10510;BME280;5303;53.266;10.410;2022-07-24T12:57:22;101437.19;;;28.16;54.64
10510;BME280;5303;53.266;10.410;2022-07-24T12:59:49;101429.34;;;28.13;54.74
10510;BME280;5303;53.266;10.410;2022-07-24T13:02:16;101434.13;;;28.22;54.48
10510;BME280;5303;53.266;10.410;2022-07-24T13:04:43;101427.38;;;28.18;53.79
10510;BME280;5303;53.266;10.410;2022-07-24T13:07:10;101431.59;;;28.16;54.34
10510;BME280;5303;53.266;10.410;2022-07-24T13:09:36;101425.13;;;28.20;54.92
10510;BME280;5303;53.266;10.410;2022-07-24T13:12:02;101422.34;;;28.30;54.76
10510;BME280;5303;53.266;10.410;2022-07-24T13:14:28;101417.91;;;28.40;53.43